EJM65 TJSJ-KPBI
Flight info
| Callsign | EJM65 |
|---|---|
| Flight time | 2h 41m |
| Altitude | 40000 |
| Route | ACONY3 SAPPO Y399 ZQA BR54V ISAAC MAHHI3 |
| Aircraft | CL60/M-SADE3FGHIJ3J4J7P2RWXY/HB1D1 |
Departure
| Time | 2026-04-25 19:32 |
|---|---|
| Airport | Luis Munoz Marin International Airport (TJSJ) |
Arrival
| Time | 2026-04-25 22:13 |
|---|---|
| Airport | Palm Beach International Airport (KPBI) |
| Time | Latitude | Longitude | Altitude | Speed | Heading |
|---|---|---|---|---|---|
| 2026-04-25 19:08 | 18.44142 | -65.99857 | 18 ft | 0 kts | 245° |
| 2026-04-25 19:24 | 18.44141 | -65.99859 | 18 ft | 3 kts | 246° |
| 2026-04-25 19:24 | 18.44193 | -65.99908 | 19 ft | 5 kts | 335° |
| 2026-04-25 19:25 | 18.44259 | -65.99960 | 20 ft | 14 kts | 269° |
| 2026-04-25 19:25 | 18.44208 | -66.00092 | 22 ft | 17 kts | 247° |
| 2026-04-25 19:25 | 18.44191 | -66.00134 | 22 ft | 0 kts | 248° |
| 2026-04-25 19:26 | 18.44187 | -66.00143 | 23 ft | 7 kts | 248° |
| 2026-04-25 19:26 | 18.44124 | -66.00176 | 24 ft | 19 kts | 154° |
| 2026-04-25 19:26 | 18.43962 | -66.00102 | 24 ft | 27 kts | 158° |
| 2026-04-25 19:26 | 18.43803 | -66.00034 | 21 ft | 21 kts | 157° |
| 2026-04-25 19:27 | 18.43688 | -65.99983 | 20 ft | 15 kts | 160° |
| 2026-04-25 19:27 | 18.43656 | -65.99978 | 19 ft | 13 kts | 182° |
| 2026-04-25 19:27 | 18.43554 | -66.00021 | 18 ft | 11 kts | 276° |
| 2026-04-25 19:27 | 18.43558 | -66.00105 | 20 ft | 12 kts | 269° |
| 2026-04-25 19:28 | 18.43540 | -66.00208 | 21 ft | 15 kts | 238° |
| 2026-04-25 19:28 | 18.43468 | -66.00325 | 20 ft | 20 kts | 253° |
| 2026-04-25 19:28 | 18.43466 | -66.00481 | 18 ft | 19 kts | 271° |
| 2026-04-25 19:28 | 18.43466 | -66.00590 | 18 ft | 10 kts | 267° |
| 2026-04-25 19:29 | 18.43466 | -66.00678 | 17 ft | 13 kts | 268° |
| 2026-04-25 19:29 | 18.43468 | -66.00793 | 15 ft | 17 kts | 273° |
| 2026-04-25 19:29 | 18.43473 | -66.00931 | 15 ft | 20 kts | 266° |
| 2026-04-25 19:29 | 18.43467 | -66.01070 | 16 ft | 15 kts | 270° |
| 2026-04-25 19:30 | 18.43469 | -66.01186 | 18 ft | 16 kts | 270° |
| 2026-04-25 19:30 | 18.43466 | -66.01269 | 18 ft | 10 kts | 270° |
| 2026-04-25 19:30 | 18.43452 | -66.01348 | 19 ft | 3 kts | 218° |
| 2026-04-25 19:30 | 18.43436 | -66.01357 | 19 ft | 1 kts | 199° |
| 2026-04-25 19:31 | 18.43415 | -66.01360 | 19 ft | 4 kts | 181° |
| 2026-04-25 19:31 | 18.43368 | -66.01356 | 19 ft | 6 kts | 156° |
| 2026-04-25 19:31 | 18.43357 | -66.01302 | 19 ft | 14 kts | 89° |
| 2026-04-25 19:31 | 18.43356 | -66.00926 | 15 ft | 98 kts | 91° |
| 2026-04-25 19:32 | 18.43342 | -65.99924 | 128 ft | 165 kts | 90° |
| 2026-04-25 19:32 | 18.43261 | -65.98727 | 1079 ft | 165 kts | 92° |
| 2026-04-25 19:32 | 18.43494 | -65.97568 | 1829 ft | 176 kts | 53° |
| 2026-04-25 19:32 | 18.43768 | -65.97239 | 2051 ft | 181 kts | 38° |
| 2026-04-25 19:33 | 18.45774 | -65.97079 | 3292 ft | 196 kts | 339° |
| 2026-04-25 19:33 | 18.47084 | -65.97644 | 3984 ft | 216 kts | 336° |
| 2026-04-25 19:33 | 18.48519 | -65.98299 | 4760 ft | 232 kts | 336° |
| 2026-04-25 19:33 | 18.50039 | -65.98991 | 5539 ft | 247 kts | 336° |
| 2026-04-25 19:34 | 18.51638 | -65.99703 | 6228 ft | 255 kts | 336° |
| 2026-04-25 19:34 | 18.53242 | -66.00492 | 6914 ft | 254 kts | 323° |
| 2026-04-25 19:34 | 18.54488 | -66.01785 | 7558 ft | 256 kts | 308° |
| 2026-04-25 19:34 | 18.55657 | -66.03213 | 8277 ft | 258 kts | 308° |
| 2026-04-25 19:35 | 18.56847 | -66.04649 | 8974 ft | 262 kts | 308° |
| 2026-04-25 19:35 | 18.58036 | -66.06084 | 9680 ft | 265 kts | 308° |
| 2026-04-25 19:35 | 18.59263 | -66.07563 | 10385 ft | 270 kts | 308° |
| 2026-04-25 19:35 | 18.60500 | -66.09052 | 11113 ft | 274 kts | 308° |
| 2026-04-25 19:36 | 18.61760 | -66.10566 | 11863 ft | 276 kts | 308° |
| 2026-04-25 19:36 | 18.63009 | -66.12067 | 12617 ft | 277 kts | 308° |
| 2026-04-25 19:36 | 18.64280 | -66.13593 | 13388 ft | 279 kts | 308° |
| 2026-04-25 19:36 | 18.65572 | -66.15140 | 14177 ft | 281 kts | 308° |
| 2026-04-25 19:37 | 18.66857 | -66.16681 | 14976 ft | 285 kts | 308° |
| 2026-04-25 19:37 | 18.68178 | -66.18268 | 15564 ft | 295 kts | 308° |
| 2026-04-25 19:37 | 18.69555 | -66.19920 | 15960 ft | 298 kts | 308° |
| 2026-04-25 19:37 | 18.70902 | -66.21532 | 16332 ft | 292 kts | 308° |
| 2026-04-25 19:38 | 18.72231 | -66.23125 | 16700 ft | 289 kts | 307° |
| 2026-04-25 19:38 | 18.73562 | -66.24719 | 17080 ft | 286 kts | 307° |
| 2026-04-25 19:38 | 18.74887 | -66.26310 | 17456 ft | 298 kts | 307° |
| 2026-04-25 19:38 | 18.76313 | -66.28027 | 17831 ft | 318 kts | 307° |
| 2026-04-25 19:39 | 18.77804 | -66.29822 | 18207 ft | 336 kts | 307° |
| 2026-04-25 19:39 | 18.79373 | -66.31709 | 18576 ft | 353 kts | 307° |
| 2026-04-25 19:39 | 18.81041 | -66.33713 | 18954 ft | 368 kts | 307° |
| 2026-04-25 19:39 | 18.82764 | -66.35782 | 19333 ft | 382 kts | 307° |
| 2026-04-25 19:40 | 18.84531 | -66.37904 | 19710 ft | 393 kts | 307° |
| 2026-04-25 19:40 | 18.86357 | -66.40095 | 20091 ft | 400 kts | 307° |
| 2026-04-25 19:40 | 18.88210 | -66.42317 | 20471 ft | 403 kts | 307° |
| 2026-04-25 19:40 | 18.90047 | -66.44520 | 20853 ft | 404 kts | 307° |
| 2026-04-25 19:41 | 18.91924 | -66.46771 | 21227 ft | 405 kts | 308° |
| 2026-04-25 19:41 | 18.93866 | -66.48901 | 21601 ft | 408 kts | 311° |
| 2026-04-25 19:41 | 18.95921 | -66.50980 | 21979 ft | 410 kts | 312° |
| 2026-04-25 19:41 | 18.96613 | -66.51680 | 22107 ft | 411 kts | 312° |
| 2026-04-25 19:42 | 19.00078 | -66.55190 | 22742 ft | 415 kts | 312° |
| 2026-04-25 19:42 | 19.02178 | -66.57318 | 23125 ft | 417 kts | 312° |
| 2026-04-25 19:42 | 19.04260 | -66.59429 | 23503 ft | 419 kts | 312° |
| 2026-04-25 19:42 | 19.06381 | -66.61581 | 23892 ft | 421 kts | 311° |
| 2026-04-25 19:43 | 19.08414 | -66.63802 | 24272 ft | 420 kts | 307° |
| 2026-04-25 19:43 | 19.10270 | -66.66170 | 24649 ft | 422 kts | 305° |
| 2026-04-25 19:43 | 19.12130 | -66.68563 | 25027 ft | 424 kts | 305° |
| 2026-04-25 19:43 | 19.14018 | -66.70988 | 25413 ft | 425 kts | 305° |
| 2026-04-25 19:44 | 19.15895 | -66.73401 | 25794 ft | 427 kts | 305° |
| 2026-04-25 19:44 | 19.17800 | -66.75850 | 26196 ft | 429 kts | 305° |
| 2026-04-25 19:44 | 19.19691 | -66.78281 | 26656 ft | 431 kts | 305° |
| 2026-04-25 19:44 | 19.21614 | -66.80755 | 27135 ft | 431 kts | 305° |
| 2026-04-25 19:45 | 19.23497 | -66.83176 | 27736 ft | 427 kts | 304° |
| 2026-04-25 19:45 | 19.25362 | -66.85573 | 28528 ft | 418 kts | 304° |
| 2026-04-25 19:45 | 19.27192 | -66.87926 | 29342 ft | 409 kts | 304° |
| 2026-04-25 19:45 | 19.28988 | -66.90236 | 30156 ft | 402 kts | 304° |
| 2026-04-25 19:46 | 19.30724 | -66.92471 | 30894 ft | 396 kts | 304° |
| 2026-04-25 19:46 | 19.32480 | -66.94734 | 31593 ft | 392 kts | 303° |
| 2026-04-25 19:46 | 19.34181 | -66.96926 | 32234 ft | 389 kts | 303° |
| 2026-04-25 19:46 | 19.35899 | -66.99143 | 32811 ft | 386 kts | 302° |
| 2026-04-25 19:47 | 19.37580 | -67.01312 | 33328 ft | 385 kts | 302° |
| 2026-04-25 19:47 | 19.39282 | -67.03510 | 33830 ft | 385 kts | 301° |
| 2026-04-25 19:47 | 19.40973 | -67.05695 | 34322 ft | 384 kts | 301° |
| 2026-04-25 19:47 | 19.42658 | -67.07872 | 34774 ft | 383 kts | 301° |
| 2026-04-25 19:48 | 19.44344 | -67.10050 | 35217 ft | 382 kts | 301° |
| 2026-04-25 19:48 | 19.46014 | -67.12209 | 35635 ft | 381 kts | 300° |
| 2026-04-25 19:48 | 19.47697 | -67.14386 | 36041 ft | 380 kts | 300° |
| 2026-04-25 19:48 | 19.49360 | -67.16538 | 36396 ft | 380 kts | 300° |
| 2026-04-25 19:49 | 19.51033 | -67.18703 | 36744 ft | 380 kts | 300° |
| 2026-04-25 19:49 | 19.51609 | -67.19448 | 36863 ft | 380 kts | 300° |
| 2026-04-25 19:49 | 19.54376 | -67.23032 | 37422 ft | 379 kts | 300° |
| 2026-04-25 19:49 | 19.56052 | -67.25204 | 37727 ft | 378 kts | 300° |
| 2026-04-25 19:50 | 19.59365 | -67.29498 | 38296 ft | 378 kts | 299° |
| 2026-04-25 19:50 | 19.61035 | -67.31664 | 38570 ft | 377 kts | 299° |
| 2026-04-25 19:50 | 19.62677 | -67.33794 | 38822 ft | 377 kts | 299° |
| 2026-04-25 19:51 | 19.64339 | -67.35951 | 39100 ft | 377 kts | 299° |
| 2026-04-25 19:51 | 19.66000 | -67.38108 | 39380 ft | 376 kts | 299° |
| 2026-04-25 19:51 | 19.67643 | -67.40241 | 39650 ft | 375 kts | 299° |
| 2026-04-25 19:51 | 19.69292 | -67.42383 | 39902 ft | 375 kts | 299° |
| 2026-04-25 19:52 | 19.70954 | -67.44546 | 39976 ft | 379 kts | 299° |
| 2026-04-25 19:52 | 19.74309 | -67.48917 | 40021 ft | 389 kts | 300° |
| 2026-04-25 19:53 | 19.77763 | -67.53418 | 39959 ft | 398 kts | 300° |
| 2026-04-25 19:53 | 19.81298 | -67.58025 | 39927 ft | 405 kts | 300° |
| 2026-04-25 19:54 | 19.84868 | -67.62677 | 39919 ft | 410 kts | 300° |
| 2026-04-25 19:54 | 19.88488 | -67.67398 | 39943 ft | 413 kts | 300° |
| 2026-04-25 19:55 | 19.92139 | -67.72165 | 39932 ft | 418 kts | 300° |
| 2026-04-25 19:55 | 19.95805 | -67.76952 | 39929 ft | 419 kts | 300° |
| 2026-04-25 19:56 | 19.99463 | -67.81731 | 39932 ft | 418 kts | 300° |
| 2026-04-25 19:56 | 20.03115 | -67.86507 | 39936 ft | 417 kts | 300° |
| 2026-04-25 19:57 | 20.06767 | -67.91288 | 39937 ft | 417 kts | 300° |
| 2026-04-25 19:57 | 20.10410 | -67.96063 | 39940 ft | 416 kts | 300° |
| 2026-04-25 19:58 | 20.14065 | -68.00857 | 39937 ft | 416 kts | 300° |
| 2026-04-25 19:58 | 20.17695 | -68.05624 | 39938 ft | 416 kts | 300° |
| 2026-04-25 19:59 | 20.21333 | -68.10404 | 39939 ft | 416 kts | 300° |
| 2026-04-25 19:59 | 20.24993 | -68.15217 | 39939 ft | 417 kts | 300° |
| 2026-04-25 20:00 | 20.28633 | -68.20009 | 39924 ft | 417 kts | 300° |
| 2026-04-25 20:00 | 20.32266 | -68.24794 | 39908 ft | 417 kts | 300° |
| 2026-04-25 20:01 | 20.37730 | -68.32000 | 39908 ft | 416 kts | 300° |
| 2026-04-25 20:01 | 20.41366 | -68.36800 | 39909 ft | 416 kts | 300° |
| 2026-04-25 20:02 | 20.44765 | -68.41698 | 39909 ft | 407 kts | 292° |
| 2026-04-25 20:02 | 20.47628 | -68.46906 | 39909 ft | 406 kts | 292° |
| 2026-04-25 20:03 | 20.50478 | -68.52086 | 39914 ft | 406 kts | 292° |
| 2026-04-25 20:03 | 20.53325 | -68.57261 | 39916 ft | 406 kts | 292° |
| 2026-04-25 20:04 | 20.56190 | -68.62472 | 39916 ft | 405 kts | 292° |
| 2026-04-25 20:04 | 20.59044 | -68.67665 | 39914 ft | 406 kts | 292° |
| 2026-04-25 20:05 | 20.61890 | -68.72849 | 39910 ft | 405 kts | 292° |
| 2026-04-25 20:05 | 20.64730 | -68.78023 | 39907 ft | 404 kts | 292° |
| 2026-04-25 20:06 | 20.67560 | -68.83184 | 39909 ft | 404 kts | 292° |
| 2026-04-25 20:06 | 20.70392 | -68.88353 | 39909 ft | 403 kts | 292° |
| 2026-04-25 20:07 | 20.73216 | -68.93512 | 39910 ft | 402 kts | 292° |
| 2026-04-25 20:07 | 20.75572 | -68.97820 | 39922 ft | 402 kts | 292° |
| 2026-04-25 20:08 | 20.78862 | -69.03841 | 39918 ft | 402 kts | 292° |
| 2026-04-25 20:08 | 20.81668 | -69.08983 | 39912 ft | 402 kts | 292° |
| 2026-04-25 20:09 | 20.84494 | -69.14164 | 39911 ft | 402 kts | 292° |
| 2026-04-25 20:09 | 20.87300 | -69.19313 | 39915 ft | 401 kts | 292° |
| 2026-04-25 20:10 | 20.90097 | -69.24452 | 39916 ft | 401 kts | 292° |
| 2026-04-25 20:10 | 20.92901 | -69.29605 | 39919 ft | 401 kts | 292° |
| 2026-04-25 20:11 | 20.95702 | -69.34759 | 39911 ft | 400 kts | 292° |
| 2026-04-25 20:11 | 20.98500 | -69.39913 | 39914 ft | 400 kts | 292° |
| 2026-04-25 20:12 | 21.01294 | -69.45064 | 39922 ft | 400 kts | 292° |
| 2026-04-25 20:12 | 21.03148 | -69.48485 | 39930 ft | 400 kts | 292° |
| 2026-04-25 20:13 | 21.06879 | -69.55375 | 39919 ft | 400 kts | 292° |
| 2026-04-25 20:13 | 21.09659 | -69.60516 | 39916 ft | 399 kts | 292° |
| 2026-04-25 20:14 | 21.12442 | -69.65664 | 39919 ft | 398 kts | 292° |
| 2026-04-25 20:14 | 21.15205 | -69.70784 | 39920 ft | 399 kts | 292° |
| 2026-04-25 20:15 | 21.17965 | -69.75900 | 39930 ft | 398 kts | 292° |
| 2026-04-25 20:15 | 21.20736 | -69.81042 | 39926 ft | 397 kts | 292° |
| 2026-04-25 20:16 | 21.23479 | -69.86136 | 39920 ft | 396 kts | 292° |
| 2026-04-25 20:16 | 21.26232 | -69.91255 | 39921 ft | 396 kts | 292° |
| 2026-04-25 20:17 | 21.28977 | -69.96364 | 39923 ft | 395 kts | 292° |
| 2026-04-25 20:17 | 21.31715 | -70.01463 | 39926 ft | 395 kts | 292° |
| 2026-04-25 20:18 | 21.34430 | -70.06526 | 39928 ft | 395 kts | 292° |
| 2026-04-25 20:18 | 21.37173 | -70.11645 | 39931 ft | 394 kts | 292° |
| 2026-04-25 20:19 | 21.39885 | -70.16710 | 39933 ft | 394 kts | 292° |
| 2026-04-25 20:19 | 21.42609 | -70.21802 | 39936 ft | 393 kts | 292° |
| 2026-04-25 20:20 | 21.45317 | -70.26870 | 39938 ft | 393 kts | 292° |
| 2026-04-25 20:20 | 21.48028 | -70.31950 | 39942 ft | 393 kts | 292° |
| 2026-04-25 20:21 | 21.50753 | -70.37058 | 39947 ft | 392 kts | 292° |
| 2026-04-25 20:21 | 21.53443 | -70.42107 | 39951 ft | 392 kts | 292° |
| 2026-04-25 20:22 | 21.55254 | -70.45509 | 39951 ft | 392 kts | 292° |
| 2026-04-25 20:22 | 21.58847 | -70.52264 | 39953 ft | 392 kts | 292° |
| 2026-04-25 20:23 | 21.61557 | -70.57364 | 39954 ft | 392 kts | 292° |
| 2026-04-25 20:23 | 21.64249 | -70.62437 | 39955 ft | 392 kts | 292° |
| 2026-04-25 20:24 | 21.66949 | -70.67528 | 39956 ft | 393 kts | 291° |
| 2026-04-25 20:24 | 21.69643 | -70.72613 | 39957 ft | 393 kts | 291° |
| 2026-04-25 20:25 | 21.72345 | -70.77717 | 39957 ft | 393 kts | 291° |
| 2026-04-25 20:25 | 21.75023 | -70.82780 | 39958 ft | 392 kts | 291° |
| 2026-04-25 20:26 | 21.77716 | -70.87878 | 39959 ft | 392 kts | 291° |
| 2026-04-25 20:26 | 21.80412 | -70.92986 | 39960 ft | 392 kts | 292° |
| 2026-04-25 20:27 | 21.83083 | -70.98051 | 39963 ft | 393 kts | 292° |
| 2026-04-25 20:27 | 21.85776 | -71.03163 | 39964 ft | 393 kts | 292° |
| 2026-04-25 20:28 | 21.88462 | -71.08265 | 39964 ft | 393 kts | 292° |
| 2026-04-25 20:28 | 21.91154 | -71.13385 | 39964 ft | 394 kts | 292° |
| 2026-04-25 20:29 | 21.93847 | -71.18510 | 39967 ft | 393 kts | 292° |
| 2026-04-25 20:29 | 21.96534 | -71.23630 | 39960 ft | 393 kts | 292° |
| 2026-04-25 20:30 | 21.99228 | -71.28769 | 39957 ft | 393 kts | 292° |
| 2026-04-25 20:30 | 22.01900 | -71.33868 | 39955 ft | 392 kts | 292° |
| 2026-04-25 20:31 | 22.04573 | -71.38975 | 39953 ft | 392 kts | 292° |
| 2026-04-25 20:31 | 22.07250 | -71.44096 | 39950 ft | 392 kts | 292° |
| 2026-04-25 20:32 | 22.09908 | -71.49184 | 39947 ft | 392 kts | 292° |
| 2026-04-25 20:32 | 22.12587 | -71.54318 | 39945 ft | 392 kts | 292° |
| 2026-04-25 20:33 | 22.15251 | -71.59430 | 39943 ft | 392 kts | 292° |
| 2026-04-25 20:33 | 22.17025 | -71.62836 | 39941 ft | 392 kts | 292° |
| 2026-04-25 20:34 | 22.20595 | -71.69697 | 39938 ft | 393 kts | 292° |
| 2026-04-25 20:34 | 22.23258 | -71.74819 | 39935 ft | 392 kts | 292° |
| 2026-04-25 20:35 | 22.25911 | -71.79927 | 39933 ft | 391 kts | 292° |
| 2026-04-25 20:35 | 22.28560 | -71.85035 | 39931 ft | 391 kts | 292° |
| 2026-04-25 20:36 | 22.31222 | -71.90171 | 39930 ft | 391 kts | 292° |
| 2026-04-25 20:36 | 22.33857 | -71.95261 | 39929 ft | 391 kts | 292° |
| 2026-04-25 20:37 | 22.36513 | -72.00394 | 39928 ft | 391 kts | 292° |
| 2026-04-25 20:37 | 22.39153 | -72.05502 | 39917 ft | 391 kts | 292° |
| 2026-04-25 20:38 | 22.41802 | -72.10635 | 39926 ft | 391 kts | 292° |
| 2026-04-25 20:38 | 22.44456 | -72.15781 | 39925 ft | 392 kts | 292° |
| 2026-04-25 20:39 | 22.47099 | -72.20912 | 39921 ft | 392 kts | 292° |
| 2026-04-25 20:39 | 22.48852 | -72.24315 | 39925 ft | 391 kts | 292° |
| 2026-04-25 20:40 | 22.52371 | -72.31158 | 39925 ft | 391 kts | 292° |
| 2026-04-25 20:40 | 22.55002 | -72.36279 | 39923 ft | 391 kts | 292° |
| 2026-04-25 20:41 | 22.57635 | -72.41409 | 39918 ft | 391 kts | 292° |
| 2026-04-25 20:41 | 22.60283 | -72.46574 | 39919 ft | 391 kts | 292° |
| 2026-04-25 20:42 | 22.62921 | -72.51725 | 39919 ft | 392 kts | 292° |
| 2026-04-25 20:42 | 22.65546 | -72.56853 | 39918 ft | 392 kts | 292° |
| 2026-04-25 20:43 | 22.68195 | -72.62036 | 39919 ft | 392 kts | 292° |
| 2026-04-25 20:43 | 22.70820 | -72.67175 | 39919 ft | 392 kts | 292° |
| 2026-04-25 20:44 | 22.73465 | -72.72361 | 39916 ft | 393 kts | 292° |
| 2026-04-25 20:44 | 22.76084 | -72.77502 | 39920 ft | 392 kts | 292° |
| 2026-04-25 20:45 | 22.78707 | -72.82664 | 39921 ft | 392 kts | 292° |
| 2026-04-25 20:45 | 22.81343 | -72.87857 | 39922 ft | 393 kts | 292° |
| 2026-04-25 20:46 | 22.83979 | -72.93054 | 39916 ft | 393 kts | 292° |
| 2026-04-25 20:46 | 22.86596 | -72.98220 | 39923 ft | 392 kts | 292° |
| 2026-04-25 20:47 | 22.89210 | -73.03386 | 39925 ft | 392 kts | 292° |
| 2026-04-25 20:47 | 22.91837 | -73.08581 | 39926 ft | 392 kts | 292° |
| 2026-04-25 20:48 | 22.94440 | -73.13735 | 39927 ft | 392 kts | 292° |
| 2026-04-25 20:48 | 22.97052 | -73.18913 | 39928 ft | 392 kts | 292° |
| 2026-04-25 20:49 | 22.99677 | -73.24121 | 39929 ft | 392 kts | 292° |
| 2026-04-25 20:49 | 23.02280 | -73.29292 | 39930 ft | 392 kts | 292° |
| 2026-04-25 20:50 | 23.04896 | -73.34494 | 39941 ft | 392 kts | 292° |
| 2026-04-25 20:50 | 23.07496 | -73.39668 | 39932 ft | 392 kts | 292° |
| 2026-04-25 20:51 | 23.10093 | -73.44843 | 39934 ft | 392 kts | 292° |
| 2026-04-25 20:51 | 23.12696 | -73.50032 | 39948 ft | 392 kts | 292° |
| 2026-04-25 20:52 | 23.14436 | -73.53506 | 39934 ft | 393 kts | 292° |
| 2026-04-25 20:52 | 23.17912 | -73.60453 | 39936 ft | 393 kts | 292° |
| 2026-04-25 20:53 | 23.20512 | -73.65655 | 39935 ft | 394 kts | 292° |
| 2026-04-25 20:53 | 23.23120 | -73.70879 | 39936 ft | 395 kts | 292° |
| 2026-04-25 20:54 | 23.25746 | -73.76142 | 39941 ft | 394 kts | 292° |
| 2026-04-25 20:54 | 23.28345 | -73.81358 | 39934 ft | 394 kts | 292° |
| 2026-04-25 20:55 | 23.30948 | -73.86588 | 39940 ft | 394 kts | 292° |
| 2026-04-25 20:55 | 23.33566 | -73.91854 | 39941 ft | 395 kts | 292° |
| 2026-04-25 20:56 | 23.36166 | -73.97088 | 39942 ft | 395 kts | 292° |
| 2026-04-25 20:56 | 23.38781 | -74.02355 | 39942 ft | 395 kts | 293° |
| 2026-04-25 20:57 | 23.41374 | -74.07587 | 39945 ft | 395 kts | 293° |
| 2026-04-25 20:57 | 23.43989 | -74.12869 | 39946 ft | 396 kts | 293° |
| 2026-04-25 20:58 | 23.46587 | -74.18121 | 39947 ft | 396 kts | 293° |
| 2026-04-25 20:58 | 23.49196 | -74.23401 | 39948 ft | 396 kts | 293° |
| 2026-04-25 20:59 | 23.51795 | -74.28665 | 39948 ft | 395 kts | 293° |
| 2026-04-25 20:59 | 23.54387 | -74.33922 | 39949 ft | 395 kts | 293° |
| 2026-04-25 21:00 | 23.56122 | -74.37444 | 39949 ft | 395 kts | 293° |
| 2026-04-25 21:01 | 23.60870 | -74.47096 | 39951 ft | 396 kts | 293° |
| 2026-04-25 21:01 | 23.63464 | -74.52378 | 39951 ft | 396 kts | 293° |
| 2026-04-25 21:02 | 23.66051 | -74.57648 | 39948 ft | 396 kts | 293° |
| 2026-04-25 21:02 | 23.68640 | -74.62933 | 39952 ft | 396 kts | 293° |
| 2026-04-25 21:03 | 23.71219 | -74.68201 | 39952 ft | 396 kts | 293° |
| 2026-04-25 21:03 | 23.73824 | -74.73528 | 39953 ft | 396 kts | 293° |
| 2026-04-25 21:04 | 23.76404 | -74.78809 | 39953 ft | 396 kts | 293° |
| 2026-04-25 21:04 | 23.78976 | -74.84079 | 39955 ft | 395 kts | 293° |
| 2026-04-25 21:05 | 23.81554 | -74.89367 | 39950 ft | 395 kts | 292° |
| 2026-04-25 21:05 | 23.84133 | -74.94663 | 39940 ft | 393 kts | 292° |
| 2026-04-25 21:06 | 23.86681 | -74.99899 | 39942 ft | 390 kts | 292° |
| 2026-04-25 21:06 | 23.89209 | -75.05103 | 39945 ft | 388 kts | 292° |
| 2026-04-25 21:07 | 23.91735 | -75.10310 | 39944 ft | 389 kts | 292° |
| 2026-04-25 21:07 | 23.94262 | -75.15524 | 39943 ft | 389 kts | 292° |
| 2026-04-25 21:08 | 23.96771 | -75.20706 | 39944 ft | 388 kts | 292° |
| 2026-04-25 21:08 | 23.99304 | -75.25942 | 39943 ft | 388 kts | 292° |
| 2026-04-25 21:09 | 24.03081 | -75.33762 | 39944 ft | 389 kts | 292° |
| 2026-04-25 21:09 | 24.05589 | -75.38961 | 39941 ft | 389 kts | 293° |
| 2026-04-25 21:10 | 24.08116 | -75.44207 | 39942 ft | 390 kts | 293° |
| 2026-04-25 21:10 | 24.10646 | -75.49464 | 39944 ft | 392 kts | 293° |
| 2026-04-25 21:11 | 24.13179 | -75.54734 | 39941 ft | 393 kts | 293° |
| 2026-04-25 21:11 | 24.15715 | -75.60016 | 39945 ft | 393 kts | 293° |
| 2026-04-25 21:12 | 24.18269 | -75.65340 | 39945 ft | 393 kts | 293° |
| 2026-04-25 21:12 | 24.19955 | -75.68858 | 39945 ft | 393 kts | 293° |
| 2026-04-25 21:13 | 24.23331 | -75.75910 | 39945 ft | 392 kts | 292° |
| 2026-04-25 21:13 | 24.25863 | -75.81208 | 39945 ft | 391 kts | 293° |
| 2026-04-25 21:14 | 24.28366 | -75.86449 | 39945 ft | 391 kts | 293° |
| 2026-04-25 21:14 | 24.30892 | -75.91747 | 39946 ft | 390 kts | 293° |
| 2026-04-25 21:15 | 24.33400 | -75.97011 | 39947 ft | 390 kts | 293° |
| 2026-04-25 21:15 | 24.35905 | -76.02276 | 39947 ft | 390 kts | 293° |
| 2026-04-25 21:16 | 24.38412 | -76.07551 | 39947 ft | 390 kts | 293° |
| 2026-04-25 21:16 | 24.40915 | -76.12824 | 39946 ft | 390 kts | 293° |
| 2026-04-25 21:17 | 24.43419 | -76.18105 | 39948 ft | 391 kts | 293° |
| 2026-04-25 21:17 | 24.45921 | -76.23388 | 39947 ft | 391 kts | 293° |
| 2026-04-25 21:18 | 24.48435 | -76.28701 | 39949 ft | 391 kts | 293° |
| 2026-04-25 21:18 | 24.50939 | -76.34000 | 39949 ft | 392 kts | 293° |
| 2026-04-25 21:19 | 24.53453 | -76.39326 | 39951 ft | 392 kts | 293° |
| 2026-04-25 21:19 | 24.55962 | -76.44650 | 39953 ft | 392 kts | 293° |
| 2026-04-25 21:20 | 24.57615 | -76.48156 | 39950 ft | 382 kts | 293° |
| 2026-04-25 21:20 | 24.59613 | -76.52395 | 39947 ft | 368 kts | 293° |
| 2026-04-25 21:20 | 24.60772 | -76.54857 | 39945 ft | 360 kts | 293° |
| 2026-04-25 21:21 | 24.63027 | -76.59654 | 39771 ft | 350 kts | 292° |
| 2026-04-25 21:21 | 24.64143 | -76.62033 | 39550 ft | 349 kts | 292° |
| 2026-04-25 21:21 | 24.65258 | -76.64414 | 39313 ft | 349 kts | 292° |
| 2026-04-25 21:22 | 24.66372 | -76.66791 | 39099 ft | 350 kts | 292° |
| 2026-04-25 21:22 | 24.67480 | -76.69157 | 38906 ft | 350 kts | 292° |
| 2026-04-25 21:22 | 24.68585 | -76.71516 | 38703 ft | 347 kts | 292° |
| 2026-04-25 21:22 | 24.69687 | -76.73869 | 38335 ft | 344 kts | 292° |
| 2026-04-25 21:23 | 24.70777 | -76.76196 | 37848 ft | 346 kts | 292° |
| 2026-04-25 21:23 | 24.71877 | -76.78550 | 37330 ft | 348 kts | 292° |
| 2026-04-25 21:23 | 24.72975 | -76.80900 | 36804 ft | 348 kts | 292° |
| 2026-04-25 21:23 | 24.74085 | -76.83276 | 36178 ft | 350 kts | 292° |
| 2026-04-25 21:24 | 24.75202 | -76.85671 | 35503 ft | 354 kts | 293° |
| 2026-04-25 21:24 | 24.76327 | -76.88083 | 34804 ft | 357 kts | 293° |
| 2026-04-25 21:24 | 24.77449 | -76.90489 | 34094 ft | 361 kts | 293° |
| 2026-04-25 21:24 | 24.78596 | -76.92950 | 33326 ft | 364 kts | 293° |
| 2026-04-25 21:25 | 24.79744 | -76.95416 | 32651 ft | 364 kts | 294° |
| 2026-04-25 21:25 | 24.80895 | -76.97884 | 32055 ft | 362 kts | 294° |
| 2026-04-25 21:25 | 24.82045 | -77.00352 | 31459 ft | 359 kts | 294° |
| 2026-04-25 21:25 | 24.83166 | -77.02760 | 30872 ft | 357 kts | 294° |
| 2026-04-25 21:26 | 24.84302 | -77.05201 | 30288 ft | 354 kts | 294° |
| 2026-04-25 21:26 | 24.85413 | -77.07591 | 29727 ft | 352 kts | 294° |
| 2026-04-25 21:26 | 24.86522 | -77.09976 | 29183 ft | 350 kts | 294° |
| 2026-04-25 21:26 | 24.87616 | -77.12332 | 28675 ft | 348 kts | 294° |
| 2026-04-25 21:27 | 24.88712 | -77.14693 | 28182 ft | 345 kts | 294° |
| 2026-04-25 21:27 | 24.89819 | -77.17083 | 27927 ft | 359 kts | 294° |
| 2026-04-25 21:27 | 24.90987 | -77.19611 | 27859 ft | 378 kts | 294° |
| 2026-04-25 21:27 | 24.92197 | -77.22229 | 27842 ft | 395 kts | 294° |
| 2026-04-25 21:28 | 24.93475 | -77.24994 | 27840 ft | 410 kts | 294° |
| 2026-04-25 21:28 | 24.94780 | -77.27815 | 27821 ft | 421 kts | 295° |
| 2026-04-25 21:28 | 24.96105 | -77.30677 | 27844 ft | 425 kts | 295° |
| 2026-04-25 21:28 | 24.97459 | -77.33604 | 27924 ft | 425 kts | 295° |
| 2026-04-25 21:29 | 24.98783 | -77.36467 | 27963 ft | 425 kts | 295° |
| 2026-04-25 21:29 | 25.00127 | -77.39378 | 27959 ft | 425 kts | 295° |
| 2026-04-25 21:29 | 25.01477 | -77.42301 | 27960 ft | 424 kts | 295° |
| 2026-04-25 21:29 | 25.02920 | -77.45121 | 27965 ft | 425 kts | 302° |
| 2026-04-25 21:30 | 25.04746 | -77.47669 | 27956 ft | 427 kts | 307° |
| 2026-04-25 21:30 | 25.06626 | -77.50202 | 27961 ft | 427 kts | 306° |
| 2026-04-25 21:30 | 25.08504 | -77.52745 | 27962 ft | 427 kts | 306° |
| 2026-04-25 21:30 | 25.09757 | -77.54443 | 27962 ft | 427 kts | 306° |
| 2026-04-25 21:31 | 25.12257 | -77.57835 | 27964 ft | 427 kts | 306° |
| 2026-04-25 21:31 | 25.14134 | -77.60384 | 27964 ft | 427 kts | 307° |
| 2026-04-25 21:31 | 25.16023 | -77.62949 | 27971 ft | 427 kts | 307° |
| 2026-04-25 21:31 | 25.17878 | -77.65472 | 27960 ft | 427 kts | 306° |
| 2026-04-25 21:32 | 25.19766 | -77.68041 | 27962 ft | 428 kts | 306° |
| 2026-04-25 21:32 | 25.21632 | -77.70581 | 27963 ft | 428 kts | 306° |
| 2026-04-25 21:32 | 25.23502 | -77.73129 | 27963 ft | 428 kts | 306° |
| 2026-04-25 21:32 | 25.25380 | -77.75691 | 27963 ft | 428 kts | 306° |
| 2026-04-25 21:33 | 25.27256 | -77.78249 | 27963 ft | 429 kts | 307° |
| 2026-04-25 21:33 | 25.29155 | -77.80843 | 27962 ft | 429 kts | 307° |
| 2026-04-25 21:33 | 25.31030 | -77.83403 | 27962 ft | 429 kts | 307° |
| 2026-04-25 21:33 | 25.32901 | -77.85960 | 27963 ft | 429 kts | 307° |
| 2026-04-25 21:34 | 25.34783 | -77.88533 | 27963 ft | 429 kts | 307° |
| 2026-04-25 21:34 | 25.36670 | -77.91116 | 27963 ft | 430 kts | 307° |
| 2026-04-25 21:34 | 25.38543 | -77.93681 | 27964 ft | 430 kts | 307° |
| 2026-04-25 21:34 | 25.40423 | -77.96256 | 27964 ft | 430 kts | 307° |
| 2026-04-25 21:35 | 25.42305 | -77.98836 | 27964 ft | 430 kts | 307° |
| 2026-04-25 21:35 | 25.44179 | -78.01406 | 27964 ft | 431 kts | 307° |
| 2026-04-25 21:35 | 25.46067 | -78.03998 | 27963 ft | 431 kts | 307° |
| 2026-04-25 21:35 | 25.47952 | -78.06587 | 27963 ft | 431 kts | 307° |
| 2026-04-25 21:36 | 25.49824 | -78.09158 | 27964 ft | 431 kts | 307° |
| 2026-04-25 21:36 | 25.51714 | -78.11756 | 27964 ft | 431 kts | 307° |
| 2026-04-25 21:36 | 25.53583 | -78.14328 | 27966 ft | 431 kts | 308° |
| 2026-04-25 21:36 | 25.55478 | -78.16935 | 27965 ft | 431 kts | 308° |
| 2026-04-25 21:37 | 25.57360 | -78.19527 | 27964 ft | 432 kts | 308° |
| 2026-04-25 21:37 | 25.57992 | -78.20398 | 27963 ft | 432 kts | 308° |
| 2026-04-25 21:37 | 25.61106 | -78.24690 | 27962 ft | 432 kts | 308° |
| 2026-04-25 21:37 | 25.62982 | -78.27277 | 27963 ft | 432 kts | 308° |
| 2026-04-25 21:38 | 25.64870 | -78.29884 | 27963 ft | 432 kts | 308° |
| 2026-04-25 21:38 | 25.66760 | -78.32494 | 27963 ft | 432 kts | 308° |
| 2026-04-25 21:38 | 25.68641 | -78.35094 | 27963 ft | 432 kts | 308° |
| 2026-04-25 21:38 | 25.70521 | -78.37693 | 27903 ft | 428 kts | 308° |
| 2026-04-25 21:39 | 25.72353 | -78.40241 | 27506 ft | 418 kts | 307° |
| 2026-04-25 21:39 | 25.73981 | -78.42844 | 27022 ft | 406 kts | 302° |
| 2026-04-25 21:39 | 25.75462 | -78.45418 | 26448 ft | 392 kts | 302° |
| 2026-04-25 21:39 | 25.76896 | -78.47907 | 25919 ft | 377 kts | 302° |
| 2026-04-25 21:40 | 25.78284 | -78.50318 | 25429 ft | 362 kts | 302° |
| 2026-04-25 21:40 | 25.79616 | -78.52632 | 24957 ft | 349 kts | 302° |
| 2026-04-25 21:40 | 25.80886 | -78.54838 | 24495 ft | 337 kts | 302° |
| 2026-04-25 21:40 | 25.82128 | -78.56997 | 24108 ft | 335 kts | 302° |
| 2026-04-25 21:41 | 25.83396 | -78.59204 | 23615 ft | 335 kts | 302° |
| 2026-04-25 21:41 | 25.84631 | -78.61353 | 23182 ft | 332 kts | 302° |
| 2026-04-25 21:41 | 25.85874 | -78.63516 | 22745 ft | 330 kts | 302° |
| 2026-04-25 21:41 | 25.87094 | -78.65642 | 22307 ft | 328 kts | 301° |
| 2026-04-25 21:42 | 25.88327 | -78.67789 | 21867 ft | 326 kts | 301° |
| 2026-04-25 21:42 | 25.89534 | -78.69892 | 21435 ft | 324 kts | 301° |
| 2026-04-25 21:42 | 25.90745 | -78.72004 | 21013 ft | 322 kts | 302° |
| 2026-04-25 21:42 | 25.91934 | -78.74077 | 20580 ft | 320 kts | 302° |
| 2026-04-25 21:43 | 25.93128 | -78.76161 | 20165 ft | 317 kts | 302° |
| 2026-04-25 21:43 | 25.94301 | -78.78208 | 19742 ft | 315 kts | 302° |
| 2026-04-25 21:43 | 25.95480 | -78.80268 | 19331 ft | 313 kts | 301° |
| 2026-04-25 21:43 | 25.96632 | -78.82280 | 18911 ft | 311 kts | 301° |
| 2026-04-25 21:44 | 25.97791 | -78.84306 | 18498 ft | 309 kts | 301° |
| 2026-04-25 21:44 | 25.98938 | -78.86312 | 18092 ft | 306 kts | 301° |
| 2026-04-25 21:44 | 26.01195 | -78.90263 | 17345 ft | 301 kts | 301° |
| 2026-04-25 21:45 | 26.02314 | -78.92221 | 16935 ft | 302 kts | 301° |
| 2026-04-25 21:45 | 26.02686 | -78.92873 | 16797 ft | 301 kts | 301° |
| 2026-04-25 21:45 | 26.04547 | -78.96132 | 16134 ft | 297 kts | 301° |
| 2026-04-25 21:45 | 26.05644 | -78.98054 | 15748 ft | 295 kts | 302° |
| 2026-04-25 21:46 | 26.06733 | -78.99964 | 15360 ft | 293 kts | 302° |
| 2026-04-25 21:46 | 26.07822 | -79.01874 | 14972 ft | 292 kts | 302° |
| 2026-04-25 21:46 | 26.08906 | -79.03776 | 14586 ft | 291 kts | 302° |
| 2026-04-25 21:46 | 26.09977 | -79.05656 | 14204 ft | 289 kts | 302° |
| 2026-04-25 21:47 | 26.11058 | -79.07554 | 13832 ft | 288 kts | 302° |
| 2026-04-25 21:47 | 26.12120 | -79.09421 | 13431 ft | 288 kts | 302° |
| 2026-04-25 21:47 | 26.13185 | -79.11292 | 13061 ft | 285 kts | 301° |
| 2026-04-25 21:47 | 26.14250 | -79.13165 | 12680 ft | 284 kts | 301° |
| 2026-04-25 21:48 | 26.15305 | -79.15020 | 12306 ft | 284 kts | 301° |
| 2026-04-25 21:48 | 26.16345 | -79.16852 | 11934 ft | 283 kts | 301° |
| 2026-04-25 21:48 | 26.17405 | -79.18718 | 11560 ft | 282 kts | 301° |
| 2026-04-25 21:48 | 26.18444 | -79.20545 | 11183 ft | 281 kts | 301° |
| 2026-04-25 21:49 | 26.19488 | -79.22385 | 10813 ft | 280 kts | 301° |
| 2026-04-25 21:49 | 26.20516 | -79.24198 | 10445 ft | 279 kts | 301° |
| 2026-04-25 21:49 | 26.21554 | -79.26029 | 10078 ft | 278 kts | 301° |
| 2026-04-25 21:49 | 26.22577 | -79.27834 | 9704 ft | 277 kts | 301° |
| 2026-04-25 21:50 | 26.23605 | -79.29648 | 9340 ft | 277 kts | 301° |
| 2026-04-25 21:50 | 26.24632 | -79.31461 | 8972 ft | 277 kts | 301° |
| 2026-04-25 21:50 | 26.25652 | -79.33262 | 8617 ft | 276 kts | 301° |
| 2026-04-25 21:50 | 26.26335 | -79.34468 | 8370 ft | 276 kts | 302° |
| 2026-04-25 21:51 | 26.27692 | -79.36867 | 7877 ft | 276 kts | 302° |
| 2026-04-25 21:51 | 26.28717 | -79.38677 | 7515 ft | 276 kts | 302° |
| 2026-04-25 21:51 | 26.29747 | -79.40501 | 7151 ft | 276 kts | 302° |
| 2026-04-25 21:51 | 26.30772 | -79.42315 | 6774 ft | 276 kts | 302° |
| 2026-04-25 21:52 | 26.31784 | -79.44106 | 6415 ft | 275 kts | 302° |
| 2026-04-25 21:52 | 26.32801 | -79.45915 | 6081 ft | 273 kts | 302° |
| 2026-04-25 21:52 | 26.33802 | -79.47691 | 5690 ft | 273 kts | 302° |
| 2026-04-25 21:52 | 26.34825 | -79.49485 | 5331 ft | 271 kts | 302° |
| 2026-04-25 21:53 | 26.35805 | -79.51230 | 5054 ft | 267 kts | 302° |
| 2026-04-25 21:53 | 26.36799 | -79.53009 | 4997 ft | 269 kts | 302° |
| 2026-04-25 21:53 | 26.37792 | -79.54772 | 4994 ft | 270 kts | 302° |
| 2026-04-25 21:53 | 26.38801 | -79.56548 | 4996 ft | 271 kts | 302° |
| 2026-04-25 21:54 | 26.39808 | -79.58331 | 4997 ft | 272 kts | 302° |
| 2026-04-25 21:54 | 26.40821 | -79.60127 | 4997 ft | 272 kts | 302° |
| 2026-04-25 21:54 | 26.41823 | -79.61905 | 4996 ft | 273 kts | 302° |
| 2026-04-25 21:54 | 26.42824 | -79.63705 | 4999 ft | 273 kts | 302° |
| 2026-04-25 21:55 | 26.43838 | -79.65511 | 4996 ft | 273 kts | 302° |
| 2026-04-25 21:55 | 26.44853 | -79.67306 | 4996 ft | 273 kts | 302° |
| 2026-04-25 21:55 | 26.45861 | -79.69089 | 5000 ft | 273 kts | 302° |
| 2026-04-25 21:55 | 26.46876 | -79.70901 | 4998 ft | 273 kts | 302° |
| 2026-04-25 21:56 | 26.47879 | -79.72697 | 4998 ft | 273 kts | 302° |
| 2026-04-25 21:56 | 26.48538 | -79.73882 | 4999 ft | 273 kts | 302° |
| 2026-04-25 21:56 | 26.49888 | -79.76286 | 4997 ft | 273 kts | 301° |
| 2026-04-25 21:56 | 26.50773 | -79.78155 | 4997 ft | 273 kts | 296° |
| 2026-04-25 21:57 | 26.51602 | -79.80072 | 4997 ft | 273 kts | 296° |
| 2026-04-25 21:57 | 26.52437 | -79.81987 | 4996 ft | 273 kts | 296° |
| 2026-04-25 21:57 | 26.53264 | -79.83880 | 4999 ft | 273 kts | 296° |
| 2026-04-25 21:57 | 26.54098 | -79.85789 | 5000 ft | 273 kts | 296° |
| 2026-04-25 21:58 | 26.54934 | -79.87712 | 4997 ft | 273 kts | 296° |
| 2026-04-25 21:58 | 26.55751 | -79.89601 | 4997 ft | 273 kts | 296° |
| 2026-04-25 21:58 | 26.56583 | -79.91534 | 4999 ft | 273 kts | 296° |
| 2026-04-25 21:58 | 26.57404 | -79.93432 | 4995 ft | 273 kts | 296° |
| 2026-04-25 21:59 | 26.58223 | -79.95359 | 4999 ft | 273 kts | 291° |
| 2026-04-25 21:59 | 26.58573 | -79.97437 | 4998 ft | 274 kts | 273° |
| 2026-04-25 21:59 | 26.58654 | -79.99542 | 4992 ft | 273 kts | 273° |
| 2026-04-25 22:00 | 26.58837 | -80.03793 | 4999 ft | 274 kts | 273° |
| 2026-04-25 22:00 | 26.58929 | -80.05921 | 4996 ft | 274 kts | 273° |
| 2026-04-25 22:00 | 26.59020 | -80.08035 | 4994 ft | 274 kts | 273° |
| 2026-04-25 22:00 | 26.59116 | -80.10151 | 4838 ft | 275 kts | 273° |
| 2026-04-25 22:01 | 26.59212 | -80.12285 | 4638 ft | 273 kts | 273° |
| 2026-04-25 22:01 | 26.59311 | -80.14404 | 4439 ft | 271 kts | 273° |
| 2026-04-25 22:01 | 26.59409 | -80.16494 | 4241 ft | 271 kts | 273° |
| 2026-04-25 22:01 | 26.59440 | -80.17200 | 4172 ft | 270 kts | 272° |
| 2026-04-25 22:02 | 26.59594 | -80.20667 | 3841 ft | 269 kts | 273° |
| 2026-04-25 22:02 | 26.59692 | -80.22767 | 3601 ft | 269 kts | 273° |
| 2026-04-25 22:02 | 26.59787 | -80.24847 | 3398 ft | 268 kts | 273° |
| 2026-04-25 22:02 | 26.59881 | -80.26906 | 3198 ft | 268 kts | 273° |
| 2026-04-25 22:03 | 26.59975 | -80.28985 | 3023 ft | 267 kts | 273° |
| 2026-04-25 22:03 | 26.60068 | -80.31039 | 2991 ft | 268 kts | 272° |
| 2026-04-25 22:03 | 26.60162 | -80.33123 | 3000 ft | 269 kts | 272° |
| 2026-04-25 22:03 | 26.60257 | -80.35223 | 3005 ft | 270 kts | 272° |
| 2026-04-25 22:04 | 26.60349 | -80.37295 | 2997 ft | 270 kts | 272° |
| 2026-04-25 22:04 | 26.60443 | -80.39401 | 2998 ft | 270 kts | 272° |
| 2026-04-25 22:04 | 26.60536 | -80.41489 | 2993 ft | 270 kts | 272° |
| 2026-04-25 22:04 | 26.60629 | -80.43597 | 2997 ft | 270 kts | 272° |
| 2026-04-25 22:05 | 26.60722 | -80.45682 | 2999 ft | 270 kts | 272° |
| 2026-04-25 22:05 | 26.60891 | -80.47778 | 2998 ft | 270 kts | 284° |
| 2026-04-25 22:05 | 26.61814 | -80.49550 | 2991 ft | 269 kts | 319° |
| 2026-04-25 22:05 | 26.63481 | -80.50428 | 2999 ft | 268 kts | 354° |
| 2026-04-25 22:06 | 26.65338 | -80.50277 | 2987 ft | 265 kts | 14° |
| 2026-04-25 22:06 | 26.67035 | -80.49520 | 2987 ft | 265 kts | 32° |
| 2026-04-25 22:06 | 26.68448 | -80.48209 | 2996 ft | 263 kts | 50° |
| 2026-04-25 22:06 | 26.69411 | -80.46484 | 2999 ft | 262 kts | 69° |
| 2026-04-25 22:07 | 26.69729 | -80.44527 | 2987 ft | 260 kts | 93° |
| 2026-04-25 22:07 | 26.69646 | -80.43179 | 2974 ft | 260 kts | 94° |
| 2026-04-25 22:07 | 26.69569 | -80.40483 | 2987 ft | 260 kts | 94° |
| 2026-04-25 22:07 | 26.69486 | -80.38458 | 2988 ft | 260 kts | 93° |
| 2026-04-25 22:08 | 26.69408 | -80.36499 | 3005 ft | 242 kts | 93° |
| 2026-04-25 22:08 | 26.69333 | -80.34718 | 3014 ft | 224 kts | 93° |
| 2026-04-25 22:08 | 26.69262 | -80.32996 | 3006 ft | 218 kts | 93° |
| 2026-04-25 22:08 | 26.69192 | -80.31305 | 2989 ft | 218 kts | 93° |
| 2026-04-25 22:09 | 26.69121 | -80.29613 | 2997 ft | 211 kts | 93° |
| 2026-04-25 22:09 | 26.69055 | -80.28033 | 2981 ft | 196 kts | 93° |
| 2026-04-25 22:09 | 26.68993 | -80.26562 | 2757 ft | 187 kts | 93° |
| 2026-04-25 22:09 | 26.68933 | -80.25143 | 2544 ft | 177 kts | 93° |
| 2026-04-25 22:10 | 26.68876 | -80.23797 | 2312 ft | 173 kts | 93° |
| 2026-04-25 22:10 | 26.68819 | -80.22458 | 2085 ft | 170 kts | 93° |
| 2026-04-25 22:10 | 26.68764 | -80.21156 | 1870 ft | 168 kts | 93° |
| 2026-04-25 22:10 | 26.68709 | -80.19882 | 1659 ft | 156 kts | 93° |
| 2026-04-25 22:11 | 26.68660 | -80.18728 | 1465 ft | 137 kts | 93° |
| 2026-04-25 22:11 | 26.68617 | -80.17655 | 1304 ft | 143 kts | 93° |
| 2026-04-25 22:11 | 26.68569 | -80.16599 | 1122 ft | 122 kts | 94° |
| 2026-04-25 22:11 | 26.68526 | -80.15642 | 962 ft | 126 kts | 94° |
| 2026-04-25 22:12 | 26.68484 | -80.14691 | 782 ft | 119 kts | 93° |
| 2026-04-25 22:12 | 26.68448 | -80.13767 | 605 ft | 119 kts | 94° |
| 2026-04-25 22:12 | 26.68405 | -80.12857 | 475 ft | 117 kts | 94° |
| 2026-04-25 22:12 | 26.68390 | -80.12551 | 419 ft | 117 kts | 93° |
| 2026-04-25 22:13 | 26.68335 | -80.11054 | 172 ft | 116 kts | 93° |
| 2026-04-25 22:13 | 26.68290 | -80.10159 | 35 ft | 110 kts | 94° |
| 2026-04-25 22:13 | 26.68258 | -80.09415 | 18 ft | 76 kts | 90° |
| 2026-04-25 22:13 | 26.68240 | -80.09026 | 17 ft | 33 kts | 91° |
| 2026-04-25 22:14 | 26.68249 | -80.08868 | 17 ft | 11 kts | 40° |
| 2026-04-25 22:14 | 26.68296 | -80.08845 | 17 ft | 3 kts | 15° |
| 2026-04-25 22:14 | 26.68341 | -80.08868 | 17 ft | 15 kts | 289° |
| 2026-04-25 22:14 | 26.68356 | -80.09081 | 17 ft | 33 kts | 274° |
| 2026-04-25 22:15 | 26.68362 | -80.09306 | 17 ft | 24 kts | 271° |
| 2026-04-25 22:15 | 26.68370 | -80.09482 | 17 ft | 23 kts | 272° |
| 2026-04-25 22:15 | 26.68379 | -80.09681 | 17 ft | 27 kts | 276° |
| 2026-04-25 22:16 | 26.68592 | -80.09917 | 17 ft | 25 kts | 315° |
| 2026-04-25 22:16 | 26.68724 | -80.10066 | 17 ft | 28 kts | 316° |
| 2026-04-25 22:16 | 26.68878 | -80.10233 | 17 ft | 32 kts | 313° |
| 2026-04-25 22:16 | 26.69016 | -80.10387 | 18 ft | 19 kts | 313° |
| 2026-04-25 22:17 | 26.69052 | -80.10493 | 20 ft | 14 kts | 270° |
| 2026-04-25 22:17 | 26.69055 | -80.10632 | 20 ft | 14 kts | 257° |
| 2026-04-25 22:17 | 26.69033 | -80.10727 | 20 ft | 14 kts | 335° |
| 2026-04-25 22:17 | 26.69102 | -80.10738 | 20 ft | 10 kts | 356° |
| 2026-04-25 22:18 | 26.69124 | -80.10722 | 20 ft | 0 kts | 77° |